createdAt,value
2022-12-23T00:01:45.493Z,134.27
2022-12-23T00:04:12.251Z,124.00
2022-12-23T00:06:39.018Z,128.93
2022-12-23T00:09:05.612Z,119.88
2022-12-23T00:11:32.285Z,127.97
2022-12-23T00:14:22.257Z,116.35
2022-12-23T00:16:51.252Z,118.10
2022-12-23T00:19:18.471Z,112.88
2022-12-23T00:21:45.143Z,102.47
2022-12-23T00:24:11.913Z,101.30
2022-12-23T00:26:38.675Z,99.35
2022-12-23T00:29:05.754Z,102.63
2022-12-23T00:31:32.376Z,106.90
2022-12-23T00:33:59.254Z,108.25
2022-12-23T00:36:30.249Z,111.25
2022-12-23T00:39:16.727Z,118.38
2022-12-23T00:42:02.330Z,114.97
2022-12-23T00:44:29.406Z,127.30
2022-12-23T00:46:56.250Z,127.25
2022-12-23T00:49:41.422Z,132.13
2022-12-23T00:52:11.483Z,125.07
2022-12-23T00:54:38.192Z,127.28
2022-12-23T00:57:05.570Z,133.80
2022-12-23T00:59:33.104Z,135.23
2022-12-23T01:02:35.119Z,149.50
2022-12-23T01:05:20.221Z,160.15
2022-12-23T01:07:47.153Z,166.48
2022-12-23T01:10:14.221Z,169.43
2022-12-23T01:12:41.275Z,150.07
2022-12-23T01:15:08.370Z,146.55
2022-12-23T01:17:35.513Z,145.07
2022-12-23T01:20:02.635Z,148.93
2022-12-23T01:22:29.202Z,149.98
2022-12-23T01:24:55.953Z,153.73
2022-12-23T01:27:22.974Z,156.68
2022-12-23T01:29:49.679Z,155.00
2022-12-23T01:32:16.413Z,157.05
2022-12-23T01:34:43.078Z,156.45
2022-12-23T01:37:09.929Z,145.30
2022-12-23T01:39:36.560Z,135.40
2022-12-23T01:42:21.777Z,143.27
2022-12-23T01:45:05.043Z,147.38
2022-12-23T01:47:38.867Z,134.23
2022-12-23T01:50:05.946Z,131.13
2022-12-23T01:52:38.670Z,140.30
2022-12-23T01:55:06.049Z,149.88
2022-12-23T01:57:34.291Z,146.30
2022-12-23T02:00:19.238Z,145.50
2022-12-23T02:03:06.654Z,145.02
2022-12-23T02:05:33.830Z,141.13
2022-12-23T02:08:19.717Z,144.23
2022-12-23T02:10:49.507Z,144.40
2022-12-23T02:14:30.296Z,145.98
2022-12-23T02:17:10.426Z,140.23
2022-12-23T02:19:59.022Z,132.13
2022-12-23T02:23:04.596Z,138.80
2022-12-23T02:25:37.126Z,136.07
2022-12-23T02:28:26.815Z,132.95
2022-12-23T02:31:13.506Z,129.75
2022-12-23T02:33:51.632Z,126.45
2022-12-23T02:36:47.855Z,123.80
2022-12-23T02:39:49.846Z,123.97
2022-12-23T02:42:31.699Z,114.35
2022-12-23T02:45:14.922Z,118.55
2022-12-23T02:47:49.736Z,117.43
2022-12-23T02:50:21.524Z,106.78
2022-12-23T02:52:50.929Z,106.13
2022-12-23T02:55:26.670Z,107.07
2022-12-23T02:57:55.867Z,107.65
2022-12-23T03:00:23.291Z,85.55
2022-12-23T03:02:50.631Z,82.30
2022-12-23T03:05:25.181Z,79.10
2022-12-23T03:07:54.766Z,79.70
2022-12-23T03:10:55.183Z,64.70
2022-12-23T03:13:27.344Z,84.50
2022-12-23T03:16:24.129Z,78.50
2022-12-23T03:18:56.531Z,67.97
2022-12-23T03:21:58.641Z,69.95
2022-12-23T03:24:50.110Z,72.53
2022-12-23T03:27:46.100Z,70.72
2022-12-23T03:30:18.149Z,70.78
2022-12-23T03:32:54.021Z,72.50
2022-12-23T03:35:27.308Z,71.25
2022-12-23T03:37:55.142Z,72.10
2022-12-23T03:40:34.162Z,72.72
2022-12-23T03:43:05.625Z,73.97
2022-12-23T03:45:41.652Z,73.40
2022-12-23T03:48:21.429Z,77.50
2022-12-23T03:50:51.797Z,75.43
2022-12-23T03:53:39.260Z,78.88
2022-12-23T03:56:10.534Z,79.60
2022-12-23T03:58:42.481Z,80.78
2022-12-23T04:01:27.924Z,85.43
2022-12-23T04:04:29.807Z,81.68
2022-12-23T04:07:13.725Z,84.38
2022-12-23T04:09:41.410Z,85.80
2022-12-23T04:12:08.395Z,84.78
2022-12-23T04:14:35.783Z,85.60
2022-12-23T04:17:02.900Z,86.03
2022-12-23T04:19:29.642Z,85.93
2022-12-23T04:21:57.783Z,86.30
2022-12-23T04:24:24.354Z,86.63
2022-12-23T04:26:51.042Z,89.13
2022-12-23T04:29:17.847Z,91.40
2022-12-23T04:31:44.837Z,90.13
2022-12-23T04:34:11.579Z,94.90
2022-12-23T04:36:38.364Z,93.82
2022-12-23T04:39:05.401Z,93.57
2022-12-23T04:41:32.081Z,90.03
2022-12-23T04:43:59.169Z,87.03
2022-12-23T04:46:25.779Z,86.35
2022-12-23T04:48:52.482Z,87.45
2022-12-23T04:51:19.104Z,88.50
2022-12-23T04:53:45.670Z,87.55
2022-12-23T04:56:12.695Z,86.50
2022-12-23T04:58:40.632Z,88.55
2022-12-23T05:01:10.118Z,90.30
2022-12-23T05:03:38.215Z,89.03
2022-12-23T05:06:05.965Z,89.95
2022-12-23T05:08:32.747Z,88.05
2022-12-23T05:10:59.551Z,87.50
2022-12-23T05:13:26.667Z,86.07
2022-12-23T05:15:54.628Z,86.05
2022-12-23T05:18:22.375Z,88.63
2022-12-23T05:20:49.864Z,89.32
2022-12-23T05:23:16.930Z,84.22
2022-12-23T05:25:43.665Z,84.45
2022-12-23T05:28:11.127Z,89.20
2022-12-23T05:30:37.698Z,89.40
2022-12-23T05:33:04.400Z,90.25
2022-12-23T05:35:31.071Z,89.05
2022-12-23T05:37:57.863Z,89.38
2022-12-23T05:40:29.323Z,86.03
2022-12-23T05:42:59.407Z,85.13
2022-12-23T05:45:26.297Z,83.40
2022-12-23T05:47:52.952Z,83.90
2022-12-23T05:50:19.571Z,85.55
2022-12-23T05:52:46.263Z,87.50
2022-12-23T05:55:12.853Z,86.53
2022-12-23T05:57:39.454Z,88.63
2022-12-23T06:00:07.173Z,86.40
2022-12-23T06:02:34.033Z,83.45
2022-12-23T06:05:00.911Z,88.25
2022-12-23T06:07:27.621Z,88.47
2022-12-23T06:09:54.248Z,89.43
2022-12-23T06:12:20.844Z,88.90
2022-12-23T06:14:47.562Z,89.55
2022-12-23T06:17:14.410Z,86.50
2022-12-23T06:19:41.089Z,85.20
2022-12-23T06:22:08.079Z,86.32
2022-12-23T06:24:35.107Z,85.03
2022-12-23T06:27:02.173Z,84.18
2022-12-23T06:29:29.339Z,83.57
2022-12-23T06:31:56.268Z,82.57
2022-12-23T06:34:23.345Z,75.13
2022-12-23T06:36:50.061Z,72.95
2022-12-23T06:39:16.960Z,73.82
2022-12-23T06:41:43.832Z,70.70
2022-12-23T06:44:10.612Z,62.38
2022-12-23T06:46:37.532Z,55.83
2022-12-23T06:49:10.950Z,56.83
2022-12-23T06:51:39.630Z,57.33
2022-12-23T06:54:06.289Z,56.63
2022-12-23T06:56:35.996Z,56.95
2022-12-23T06:59:02.665Z,58.80
2022-12-23T07:01:29.436Z,57.25
2022-12-23T07:03:56.220Z,55.70
2022-12-23T07:06:22.991Z,54.40
2022-12-23T07:08:51.375Z,53.53
2022-12-23T07:11:18.668Z,55.10
2022-12-23T07:13:46.640Z,55.50
2022-12-23T07:16:13.525Z,58.00
2022-12-23T07:18:41.067Z,60.05
2022-12-23T07:21:15.570Z,63.85
2022-12-23T07:23:44.775Z,85.85
2022-12-23T07:26:11.313Z,87.40
2022-12-23T07:28:38.398Z,82.90
2022-12-23T07:31:08.186Z,72.57
2022-12-23T07:33:35.247Z,69.25
2022-12-23T07:36:01.857Z,63.28
2022-12-23T07:38:29.820Z,65.10
2022-12-23T07:40:56.792Z,60.80
2022-12-23T07:43:23.405Z,62.90
2022-12-23T07:45:55.546Z,58.95
2022-12-23T07:48:26.276Z,62.25
2022-12-23T07:50:54.580Z,62.83
2022-12-23T07:53:21.200Z,65.30
2022-12-23T07:55:53.021Z,67.88
2022-12-23T07:58:22.828Z,68.38
2022-12-23T08:00:49.417Z,70.63
2022-12-23T08:03:16.105Z,74.15
2022-12-23T08:05:43.329Z,69.45
2022-12-23T08:08:09.948Z,65.63
2022-12-23T08:10:38.238Z,64.38
2022-12-23T08:13:06.959Z,64.30
2022-12-23T08:15:33.477Z,64.78
2022-12-23T08:18:00.211Z,58.17
2022-12-23T08:20:26.997Z,62.58
2022-12-23T08:22:53.901Z,59.95
2022-12-23T08:25:20.731Z,57.63
2022-12-23T08:27:47.620Z,55.55
2022-12-23T08:30:14.587Z,59.63
2022-12-23T08:32:41.548Z,56.90
2022-12-23T08:35:08.815Z,53.50
2022-12-23T08:37:35.594Z,56.95
2022-12-23T08:40:02.689Z,55.10
2022-12-23T08:42:29.642Z,57.03
2022-12-23T08:44:56.281Z,60.42
2022-12-23T08:47:22.980Z,54.10
2022-12-23T08:49:49.531Z,54.08
2022-12-23T08:52:16.103Z,54.10
2022-12-23T08:54:43.153Z,56.25
2022-12-23T08:57:09.813Z,53.05
2022-12-23T08:59:36.924Z,55.65
2022-12-23T09:02:03.937Z,55.85
2022-12-23T09:04:31.227Z,55.50
2022-12-23T09:06:57.894Z,56.63
2022-12-23T09:09:24.436Z,54.47
2022-12-23T09:11:51.036Z,55.20
2022-12-23T09:14:17.911Z,57.10
2022-12-23T09:16:44.779Z,54.53
2022-12-23T09:19:11.626Z,57.35
2022-12-23T09:21:38.224Z,55.92
2022-12-23T09:24:05.364Z,55.28
2022-12-23T09:26:32.616Z,55.45
2022-12-23T09:28:59.731Z,55.03
2022-12-23T09:31:32.290Z,56.03
2022-12-23T09:34:00.875Z,57.15
2022-12-23T09:36:27.422Z,55.35
2022-12-23T09:38:56.639Z,55.47
2022-12-23T09:41:29.626Z,56.70
2022-12-23T09:44:21.276Z,58.05
2022-12-23T09:46:55.731Z,59.95
2022-12-23T09:49:23.932Z,57.75
2022-12-23T09:51:56.033Z,58.22
2022-12-23T09:54:29.500Z,56.25
2022-12-23T09:57:11.046Z,57.10
2022-12-23T09:59:55.093Z,58.80
2022-12-23T10:02:30.781Z,58.20
2022-12-23T10:05:22.323Z,60.40
2022-12-23T10:07:57.454Z,60.65
2022-12-23T10:10:37.687Z,61.55
2022-12-23T10:13:07.572Z,61.53
2022-12-23T10:15:47.629Z,60.33
2022-12-23T10:18:42.283Z,62.45
2022-12-23T10:21:16.458Z,59.78
2022-12-23T10:23:49.339Z,63.47
2022-12-23T10:26:31.908Z,63.08
2022-12-23T10:29:19.441Z,61.22
2022-12-23T10:31:59.663Z,59.88
2022-12-23T10:34:38.153Z,57.97
2022-12-23T10:37:47.384Z,58.63
2022-12-23T10:40:26.185Z,58.65
2022-12-23T10:43:19.487Z,58.22
2022-12-23T10:46:14.804Z,61.88
2022-12-23T10:49:05.239Z,63.60
2022-12-23T10:51:47.125Z,65.55
2022-12-23T10:54:36.055Z,65.70
2022-12-23T10:57:05.821Z,67.05
2022-12-23T10:59:34.231Z,65.45
2022-12-23T11:02:13.469Z,66.95
2022-12-23T11:04:46.451Z,67.00
2022-12-23T11:07:43.574Z,70.57
2022-12-23T11:10:07.661Z,68.97
2022-12-23T11:12:42.495Z,68.18
2022-12-23T11:15:27.704Z,68.28
2022-12-23T11:18:12.356Z,65.90
2022-12-23T11:20:41.705Z,65.35
2022-12-23T11:23:29.573Z,66.70
2022-12-23T11:26:20.140Z,67.65
2022-12-23T11:28:53.322Z,65.55
2022-12-23T11:31:27.995Z,59.13
2022-12-23T11:34:00.108Z,51.80
2022-12-23T11:36:28.855Z,53.75
2022-12-23T11:39:04.569Z,54.78
2022-12-23T11:41:38.881Z,54.97
2022-12-23T11:44:11.834Z,53.30
2022-12-23T11:46:38.696Z,55.70
2022-12-23T11:49:33.097Z,51.28
2022-12-23T11:52:06.647Z,55.22
2022-12-23T11:54:34.408Z,54.95
2022-12-23T11:57:06.042Z,54.40
2022-12-23T11:59:42.636Z,51.05
2022-12-23T12:02:19.782Z,51.28
2022-12-23T12:05:26.492Z,45.67
2022-12-23T12:07:58.657Z,45.30
2022-12-23T12:10:35.579Z,44.58
2022-12-23T12:13:06.268Z,47.75
2022-12-23T12:15:47.458Z,45.20
2022-12-23T12:18:17.936Z,43.83
2022-12-23T12:20:48.585Z,37.55
2022-12-23T12:23:21.465Z,39.78
2022-12-23T12:25:54.809Z,36.65
2022-12-23T12:28:37.206Z,22.77
2022-12-23T12:31:20.475Z,18.75
2022-12-23T12:33:50.243Z,20.10
2022-12-23T12:36:41.717Z,20.08
2022-12-23T12:39:17.367Z,17.88
2022-12-23T12:42:03.604Z,19.35
2022-12-23T12:44:41.780Z,19.30
2022-12-23T12:47:53.240Z,19.15
2022-12-23T12:50:31.247Z,18.30
2022-12-23T12:53:04.018Z,19.10
2022-12-23T12:55:37.526Z,17.25
2022-12-23T12:58:04.180Z,19.23
2022-12-23T13:00:45.719Z,17.95
2022-12-23T13:03:21.281Z,16.05
2022-12-23T13:06:00.037Z,15.73
2022-12-23T13:08:26.944Z,16.10
2022-12-23T13:11:03.212Z,14.63
2022-12-23T13:13:42.247Z,13.32
2022-12-23T13:16:26.607Z,12.45
2022-12-23T13:19:00.982Z,11.80
2022-12-23T13:21:37.905Z,12.50
2022-12-23T13:24:22.982Z,12.80
2022-12-23T13:27:02.380Z,14.02
2022-12-23T13:30:09.122Z,13.50
2022-12-23T13:32:57.986Z,14.68
2022-12-23T13:35:46.387Z,16.10
2022-12-23T13:38:37.322Z,17.35
2022-12-23T13:41:36.965Z,15.80
2022-12-23T13:44:05.568Z,15.80
2022-12-23T13:46:47.767Z,15.48
2022-12-23T13:50:01.985Z,14.35
2022-12-23T13:52:59.529Z,10.57
2022-12-23T13:55:35.359Z,7.30
2022-12-23T13:58:16.561Z,5.90
2022-12-23T14:00:44.133Z,5.00
2022-12-23T14:03:12.730Z,5.18
2022-12-23T14:05:48.029Z,5.30
2022-12-23T14:08:38.778Z,6.00
2022-12-23T14:11:18.879Z,5.25
2022-12-23T14:13:51.508Z,4.75
2022-12-23T14:16:21.687Z,5.40
2022-12-23T14:19:19.072Z,5.05
2022-12-23T14:22:14.364Z,4.03
2022-12-23T14:25:08.982Z,3.30
2022-12-23T14:27:54.645Z,3.13
2022-12-23T14:30:35.904Z,2.47
2022-12-23T14:33:27.441Z,2.58
2022-12-23T14:35:54.050Z,2.80
2022-12-23T14:38:32.637Z,3.92
2022-12-23T14:41:20.336Z,6.75
2022-12-23T14:43:47.051Z,7.03
2022-12-23T14:46:35.492Z,8.13
2022-12-23T14:49:36.912Z,6.93
2022-12-23T14:51:51.988Z,6.32
2022-12-23T14:54:38.344Z,10.73
2022-12-23T14:57:19.969Z,13.13
2022-12-23T14:59:54.476Z,16.20
2022-12-23T15:02:31.135Z,13.45
2022-12-23T15:04:59.314Z,13.98
2022-12-23T15:07:42.655Z,17.08
2022-12-23T15:10:16.129Z,12.25
2022-12-23T15:12:46.889Z,5.63
2022-12-23T15:15:27.788Z,4.95
2022-12-23T15:18:07.020Z,5.68
2022-12-23T15:20:35.569Z,5.68
2022-12-23T15:23:08.531Z,4.95
2022-12-23T15:25:40.570Z,4.80
2022-12-23T15:28:18.341Z,5.05
2022-12-23T15:30:52.505Z,5.18
2022-12-23T15:36:10.909Z,13.90
2022-12-23T15:38:38.911Z,13.05
2022-12-23T15:41:14.767Z,11.65
2022-12-23T15:43:42.761Z,7.60
2022-12-23T15:46:16.982Z,8.70
2022-12-23T15:48:44.411Z,7.97
2022-12-23T15:51:21.944Z,7.32
2022-12-23T15:54:05.736Z,7.50
2022-12-23T15:56:36.413Z,8.13
2022-12-23T15:59:04.729Z,6.20
2022-12-23T16:01:39.894Z,3.50
2022-12-23T16:04:09.062Z,7.22
2022-12-23T16:06:36.755Z,5.40
2022-12-23T16:09:07.741Z,6.88
2022-12-23T16:12:02.406Z,5.05
2022-12-23T16:14:34.422Z,5.25
2022-12-23T16:17:08.301Z,5.90
2022-12-23T16:19:49.961Z,6.80
2022-12-23T16:22:27.662Z,6.35
2022-12-23T16:25:02.110Z,7.13
2022-12-23T16:27:43.301Z,5.53
2022-12-23T16:30:19.777Z,4.63
2022-12-23T16:32:58.453Z,5.38
2022-12-23T16:35:34.197Z,5.20
2022-12-23T16:38:20.193Z,3.08
2022-12-23T16:40:49.459Z,4.03
2022-12-23T16:43:17.256Z,5.93
2022-12-23T16:45:46.385Z,6.00
2022-12-23T16:48:28.838Z,5.30
2022-12-23T16:50:55.834Z,5.25
2022-12-23T16:53:22.757Z,5.93
2022-12-23T16:55:55.360Z,5.97
2022-12-23T16:58:25.261Z,7.55
2022-12-23T17:00:53.082Z,31.00
2022-12-23T17:03:20.681Z,32.55
2022-12-23T17:05:48.402Z,39.10
2022-12-23T17:08:15.516Z,38.78
2022-12-23T17:10:44.649Z,38.10
2022-12-23T17:13:17.109Z,42.30
2022-12-23T17:15:44.260Z,42.13
2022-12-23T17:18:16.962Z,42.83
2022-12-23T17:20:46.656Z,55.78
2022-12-23T17:23:30.591Z,55.00
2022-12-23T17:25:57.597Z,60.65
2022-12-23T17:28:31.087Z,59.80
2022-12-23T17:30:59.057Z,62.55
2022-12-23T17:33:29.969Z,63.33
2022-12-23T17:35:57.713Z,58.83
2022-12-23T17:38:25.154Z,55.38
2022-12-23T17:40:51.867Z,58.85
2022-12-23T17:43:18.846Z,55.28
2022-12-23T17:45:45.932Z,64.55
2022-12-23T17:48:20.204Z,60.47
2022-12-23T17:50:48.249Z,58.42
2022-12-23T17:53:17.778Z,55.95
2022-12-23T17:55:44.567Z,56.05
2022-12-23T17:58:12.119Z,54.42
2022-12-23T18:00:39.061Z,58.30
2022-12-23T18:03:06.598Z,56.33
2022-12-23T18:05:35.371Z,58.00
2022-12-23T18:08:03.455Z,53.63
2022-12-23T18:10:37.441Z,54.88
2022-12-23T18:13:08.017Z,52.35
2022-12-23T18:15:41.321Z,50.53
2022-12-23T18:18:23.894Z,49.33
2022-12-23T18:20:52.987Z,44.95
2022-12-23T18:23:24.568Z,27.98
2022-12-23T18:25:51.355Z,33.20
2022-12-23T18:28:18.180Z,29.23
2022-12-23T18:30:44.973Z,28.08
2022-12-23T18:33:12.867Z,30.52
2022-12-23T18:35:44.237Z,29.75
2022-12-23T18:38:11.521Z,29.17
2022-12-23T18:40:39.585Z,28.58
2022-12-23T18:43:07.727Z,30.35
2022-12-23T18:45:41.975Z,30.77
2022-12-23T18:48:09.913Z,38.97
2022-12-23T18:50:40.253Z,38.80
2022-12-23T18:53:08.224Z,47.08
2022-12-23T18:55:34.810Z,46.30
2022-12-23T18:58:01.663Z,60.60
2022-12-23T19:00:31.216Z,47.83
2022-12-23T19:02:58.049Z,47.88
2022-12-23T19:05:30.542Z,49.17
2022-12-23T19:07:58.524Z,56.05
2022-12-23T19:10:34.985Z,57.30
2022-12-23T19:13:01.602Z,56.97
2022-12-23T19:15:28.580Z,58.90
2022-12-23T19:17:55.282Z,61.47
2022-12-23T19:20:22.032Z,64.13
2022-12-23T19:22:49.210Z,61.50
2022-12-23T19:25:18.311Z,61.00
2022-12-23T19:27:46.708Z,68.38
2022-12-23T19:30:17.180Z,64.72
2022-12-23T19:32:44.772Z,51.35
2022-12-23T19:35:14.871Z,55.75
2022-12-23T19:37:42.267Z,50.67
2022-12-23T19:40:09.759Z,40.67
2022-12-23T19:42:40.195Z,37.42
2022-12-23T19:45:09.304Z,24.33
2022-12-23T19:47:36.404Z,30.50
2022-12-23T19:50:04.142Z,30.35
2022-12-23T19:52:30.807Z,34.17
2022-12-23T19:54:57.425Z,44.50
2022-12-23T19:57:24.714Z,42.63
2022-12-23T19:59:51.447Z,36.75
2022-12-23T20:02:20.288Z,30.30
2022-12-23T20:04:47.220Z,28.25
2022-12-23T20:07:13.800Z,26.17
2022-12-23T20:09:40.449Z,31.10
2022-12-23T20:12:07.384Z,34.53
2022-12-23T20:14:34.562Z,42.55
2022-12-23T20:17:01.719Z,44.03
2022-12-23T20:19:28.387Z,41.70
2022-12-23T20:21:55.079Z,35.88
2022-12-23T20:24:21.860Z,33.42
2022-12-23T20:26:48.472Z,30.85
2022-12-23T20:29:15.263Z,33.75
2022-12-23T20:31:42.246Z,32.53
2022-12-23T20:34:14.450Z,31.92
2022-12-23T20:36:41.287Z,33.95
2022-12-23T20:39:08.547Z,33.33
2022-12-23T20:41:35.635Z,33.15
2022-12-23T20:44:32.969Z,33.50
2022-12-23T20:46:48.943Z,31.38
2022-12-23T20:49:15.724Z,33.45
2022-12-23T20:51:42.556Z,31.92
2022-12-23T20:54:09.540Z,32.38
2022-12-23T20:56:36.140Z,32.53
2022-12-23T20:59:02.934Z,33.10
2022-12-23T21:01:35.991Z,37.83
2022-12-23T21:04:15.935Z,40.33
2022-12-23T21:06:43.998Z,39.85
2022-12-23T21:09:13.866Z,47.78
2022-12-23T21:11:43.448Z,48.40
2022-12-23T21:14:10.835Z,49.58
2022-12-23T21:16:38.880Z,48.92
2022-12-23T21:19:07.619Z,50.13
2022-12-23T21:21:34.593Z,48.67
2022-12-23T21:24:04.728Z,43.60
2022-12-23T21:26:33.265Z,42.17
2022-12-23T21:29:02.038Z,40.60
2022-12-23T21:31:31.058Z,40.45
2022-12-23T21:33:58.562Z,37.53
2022-12-23T21:36:28.050Z,39.13
2022-12-23T21:38:55.279Z,40.42
2022-12-23T21:41:27.607Z,40.85
2022-12-23T21:43:56.398Z,36.80
2022-12-23T21:46:24.666Z,35.15
2022-12-23T21:48:51.405Z,35.65
2022-12-23T21:51:22.977Z,36.45
2022-12-23T21:53:51.888Z,34.75
2022-12-23T21:56:21.732Z,36.67
2022-12-23T21:58:48.307Z,35.70
2022-12-23T22:01:20.170Z,36.15
2022-12-23T22:03:49.279Z,35.88
2022-12-23T22:06:21.940Z,38.90
2022-12-23T22:08:49.858Z,38.40
2022-12-23T22:11:20.385Z,42.08
2022-12-23T22:13:47.806Z,42.38
2022-12-23T22:16:18.004Z,41.30
2022-12-23T22:18:45.025Z,43.08
2022-12-23T22:21:14.793Z,43.63
2022-12-23T22:23:41.557Z,43.92
2022-12-23T22:26:10.759Z,42.25
2022-12-23T22:28:39.666Z,39.33
2022-12-23T22:31:21.536Z,41.00
2022-12-23T22:33:48.271Z,38.72
2022-12-23T22:36:16.013Z,35.83
2022-12-23T22:38:43.786Z,40.60
2022-12-23T22:41:11.122Z,36.22
2022-12-23T22:43:38.194Z,40.63
2022-12-23T22:46:05.754Z,39.00
2022-12-23T22:48:33.330Z,29.00
2022-12-23T22:51:07.492Z,24.48
2022-12-23T22:53:34.258Z,26.65
2022-12-23T22:56:02.565Z,24.85
2022-12-23T22:58:31.137Z,26.13
2022-12-23T23:00:58.549Z,24.63
2022-12-23T23:03:26.741Z,26.83
2022-12-23T23:06:02.709Z,24.67
2022-12-23T23:08:30.525Z,22.90
2022-12-23T23:10:59.711Z,22.25
2022-12-23T23:13:30.402Z,21.40
2022-12-23T23:15:57.979Z,25.60
2022-12-23T23:18:25.893Z,29.95
2022-12-23T23:20:53.091Z,31.20
2022-12-23T23:23:19.962Z,32.95
2022-12-23T23:25:46.848Z,33.15
2022-12-23T23:28:13.971Z,33.33
2022-12-23T23:30:40.800Z,32.08
2022-12-23T23:33:08.963Z,32.35
2022-12-23T23:35:36.115Z,28.48
2022-12-23T23:38:02.709Z,31.23
2022-12-23T23:40:29.599Z,33.38
2022-12-23T23:42:56.377Z,33.28
2022-12-23T23:45:23.098Z,34.92
2022-12-23T23:47:49.631Z,35.05
2022-12-23T23:50:16.452Z,37.55
2022-12-23T23:52:43.046Z,37.47
2022-12-23T23:55:10.087Z,36.03
2022-12-23T23:57:36.836Z,37.60
